This is the latest recevied weather packets stored in our database for station/object DG0PX-12. If no packets are shown the sender has not sent any weather packets the latest 10 day(s).
| Time | Temp. | Humidity | Pressure | Rain* | Wind** | Luminosity | Snow |
|---|---|---|---|---|---|---|---|
| 1787385542 | 23.89° C | 42% | 951.3 hPa | - | - | - | - |
| 1787384642 | 23.89° C | 43% | 951.3 hPa | - | - | - | - |
| 1787383742 | 22.22° C | 47% | 951 hPa | - | - | - | - |
| 1787382842 | 21.67° C | 46% | 950.8 hPa | - | - | - | - |
| 1787381942 | 22.22° C | 50% | 950.5 hPa | - | - | - | - |
| 1787381042 | 21.67° C | 49% | 950.3 hPa | - | - | - | - |
| 1787380142 | 23.33° C | 45% | 950.3 hPa | - | - | - | - |
| 1787379242 | 21.67° C | 51% | 950.1 hPa | - | - | - | - |
| 1787378342 | 21.11° C | 62% | 949.8 hPa | - | - | - | - |
| 1787377442 | 20.56° C | 59% | 949.7 hPa | - | - | - | - |
| 1787376542 | 20.56° C | 59% | 949.5 hPa | - | - | - | - |
| 1787375642 | 19.44° C | 63% | 949.3 hPa | - | - | - | - |
| 1787374741 | 19.44° C | 62% | 949 hPa | - | - | - | - |
| 1787373841 | 17.78° C | 70% | 948.9 hPa | - | - | - | - |
| 1787372941 | 19.44° C | 69% | 948.8 hPa | - | - | - | - |
| 1787372041 | 17.78° C | 71% | 948.6 hPa | - | - | - | - |
| 1787371141 | 18.33° C | 70% | 948.5 hPa | - | - | - | - |
| 1787370241 | 18.33° C | 71% | 948.4 hPa | - | - | - | - |
| 1787369341 | 19.44° C | 65% | 948.4 hPa | - | - | - | - |
| 1787368441 | 20.56° C | 62% | 948.5 hPa | - | - | - | - |
| 1787367541 | 17.78° C | 70% | 948.1 hPa | - | - | - | - |
| 1787366641 | 18.89° C | 67% | 948 hPa | - | - | - | - |
| 1787365741 | 18.33° C | 68% | 947.7 hPa | - | - | - | - |
| 1787364841 | 19.44° C | 63% | 947.7 hPa | - | - | - | - |
| 1787363941 | 21.11° C | 57% | 947.7 hPa | - | - | - | - |
* Rain since midnight (hover to see other rain measurements)
** Current wind speed in m/s (hover to see current wind gust speed)